< Cyclone 198416 1984 Season Cyclone 198418 >
Cyclone 198417 (FERDINAND)
General InformationTrack Information on Google MapsDetailed Wind InformationList of All Images || ResourceGoogle EarthGE AnimationAtom FeedGeoJSON
Detalied Best Track (Time Zone = UTC)
Year Month Day Hour Lat. Long. Pressure (hPa) Wind (kt) Class Image Chart
1984 3 2 02 -11.8 131.1 1004 20 2 Image --
1984 3 2 05 -11.8 131.3 1003 20 2 Image --
1984 3 2 08 -11.8 131.6 1003 20 2 Image --
1984 3 2 10 -11.7 131.8 1003 20 2 Image --
1984 3 2 14 -11.6 131.9 1003 20 2 Image --
1984 3 2 17 -11.4 131.8 1002 25 2 Image --
1984 3 2 20 -11.0 131.8 1000 25 2 Image --
1984 3 2 23 -10.8 132.2 1000 25 2 Image --
1984 3 3 02 -10.8 132.5 1000 25 2 Image --
1984 3 3 05 -11.0 132.8 998 30 2 Image --
1984 3 3 08 -11.1 133.2 997 30 2 Image --
1984 3 3 11 -11.2 133.4 997 30 2 Image --
1984 3 3 14 -11.3 133.5 996 30 2 Image --
1984 3 3 17 -11.4 133.6 993 40 3 Image --
1984 3 3 20 -11.5 133.7 991 40 3 Image --
1984 3 3 23 -11.5 133.8 991 40 3 Image --
1984 3 4 02 -11.6 134.0 988 50 4 Image --
1984 3 4 05 -11.7 134.1 983 55 4 Image --
1984 3 4 08 -11.8 134.3 980 60 4 Image --
1984 3 4 11 -11.9 134.4 984 60 4 Image --
1984 3 4 14 -12.1 134.5 990 50 4 Image --
1984 3 4 17 -12.4 134.6 995 40 3 Image --
1984 3 4 20 -12.6 134.4 997 30 2 Image --
1984 3 4 23 -12.8 134.2 1000 20 2 Image --
< Cyclone 198416 1984 Season Cyclone 198418 >

Help